Northwood, United Kingdom
Current Conditions -  °F | °C
As of 5:50 AM on Saturday 20 Dec 2014 (Local Time) from EGWU Reporting Station
Broken Clouds Broken Clouds  
Wind Chill: 37°   Ceiling: 4000
Heat Index: 43°   Visibility: 6mi
Dew Point: 37°   Wind: 9mph
Humidity: 81%   Direction: 250°WSW
Pressure: 30.24"   Gusts: NA
Location:  51.61°N, 0.42°W
Report Text: EGWU 200550Z AUTO 25008KT 9999 // BKN040/// 06/03 Q1024
Loading
Personal Weather Stations






























Interactive Weather Map New forecast layout! Learn more

10-Day Weather Forecast

Advertisements
Track Severe Weather on mobile